createdAt,value
2022-07-31T00:00:15.349Z,56.40
2022-07-31T00:02:42.187Z,55.90
2022-07-31T00:05:09.560Z,55.70
2022-07-31T00:07:36.411Z,55.50
2022-07-31T00:10:04.953Z,55.00
2022-07-31T00:12:32.165Z,54.90
2022-07-31T00:14:58.913Z,54.80
2022-07-31T00:17:25.691Z,54.70
2022-07-31T00:19:52.588Z,54.80
2022-07-31T00:22:19.396Z,54.60
2022-07-31T00:24:46.112Z,54.70
2022-07-31T00:27:12.922Z,54.20
2022-07-31T00:29:42.499Z,54.30
2022-07-31T00:32:09.280Z,54.50
2022-07-31T00:34:35.979Z,54.20
2022-07-31T00:37:03.256Z,54.50
2022-07-31T00:39:31.066Z,54.80
2022-07-31T00:41:58.098Z,55.00
2022-07-31T00:44:25.205Z,54.90
2022-07-31T00:46:52.918Z,55.10
2022-07-31T00:49:20.409Z,55.30
2022-07-31T00:51:48.094Z,55.40
2022-07-31T00:54:22.702Z,54.90
2022-07-31T00:56:50.647Z,54.90
2022-07-31T00:59:24.283Z,55.00
2022-07-31T01:01:52.060Z,55.10
2022-07-31T01:04:19.867Z,54.80
2022-07-31T01:06:47.431Z,54.60
2022-07-31T01:09:15.269Z,55.00
2022-07-31T01:12:00.579Z,55.20
2022-07-31T01:14:32.901Z,54.90
2022-07-31T01:17:01.825Z,55.00
2022-07-31T01:19:42.765Z,55.00
2022-07-31T01:22:32.960Z,55.10
2022-07-31T01:25:07.414Z,55.50
2022-07-31T01:27:52.494Z,55.20
2022-07-31T01:30:26.621Z,54.90
2022-07-31T01:33:02.916Z,55.40
2022-07-31T01:35:35.656Z,55.60
2022-07-31T01:38:10.168Z,55.80
2022-07-31T01:40:47.331Z,56.00
2022-07-31T01:43:22.451Z,56.40
2022-07-31T01:45:54.738Z,56.60
2022-07-31T01:48:23.122Z,56.90
2022-07-31T01:50:53.970Z,56.90
2022-07-31T01:53:24.059Z,57.20
2022-07-31T01:56:02.106Z,57.40
2022-07-31T01:58:35.400Z,57.30
2022-07-31T02:01:04.809Z,57.40
2022-07-31T02:03:42.735Z,57.60
2022-07-31T02:06:12.998Z,57.80
2022-07-31T02:08:40.894Z,57.80
2022-07-31T02:11:09.103Z,57.90
2022-07-31T02:13:37.434Z,58.10
2022-07-31T02:16:05.692Z,58.20
2022-07-31T02:18:34.188Z,58.40
2022-07-31T02:21:01.104Z,58.50
2022-07-31T02:23:27.939Z,58.40
2022-07-31T02:25:54.902Z,58.50
2022-07-31T02:28:23.282Z,58.70
2022-07-31T02:30:51.776Z,58.90
2022-07-31T02:33:21.759Z,58.90
2022-07-31T02:35:50.348Z,59.00
2022-07-31T02:38:22.786Z,59.10
2022-07-31T02:40:58.856Z,58.90
2022-07-31T02:43:30.409Z,59.00
2022-07-31T02:45:58.716Z,59.10
2022-07-31T02:48:26.497Z,59.20
2022-07-31T02:50:53.703Z,59.20
2022-07-31T02:53:21.129Z,59.10
2022-07-31T02:55:49.528Z,59.30
2022-07-31T02:58:16.292Z,59.50
2022-07-31T03:00:43.262Z,59.30
2022-07-31T03:03:09.996Z,59.60
2022-07-31T03:05:36.678Z,59.90
2022-07-31T03:08:03.511Z,60.10
2022-07-31T03:10:30.358Z,60.40
2022-07-31T03:12:58.270Z,60.50
2022-07-31T03:15:27.111Z,60.90
2022-07-31T03:17:55.034Z,61.20
2022-07-31T03:20:22.425Z,61.40
2022-07-31T03:22:49.546Z,61.50
2022-07-31T03:25:21.744Z,61.80
2022-07-31T03:27:55.817Z,61.70
2022-07-31T03:30:27.635Z,61.90
2022-07-31T03:32:55.949Z,62.10
2022-07-31T03:35:24.790Z,62.20
2022-07-31T03:37:52.721Z,62.40
2022-07-31T03:40:20.259Z,62.40
2022-07-31T03:42:49.671Z,62.60
2022-07-31T03:45:17.477Z,62.80
2022-07-31T03:47:44.621Z,62.90
2022-07-31T03:50:11.520Z,62.60
2022-07-31T03:52:39.919Z,62.80
2022-07-31T03:55:08.287Z,62.90
2022-07-31T03:57:37.914Z,63.10
2022-07-31T04:00:07.406Z,63.40
2022-07-31T04:02:44.570Z,63.40
2022-07-31T04:05:11.522Z,63.50
2022-07-31T04:07:38.281Z,63.60
2022-07-31T04:10:05.481Z,63.80
2022-07-31T04:12:32.348Z,63.90
2022-07-31T04:14:59.190Z,63.90
2022-07-31T04:17:25.970Z,64.00
2022-07-31T04:19:53.073Z,64.10
2022-07-31T04:22:19.987Z,64.00
2022-07-31T04:24:46.715Z,64.10
2022-07-31T04:27:17.596Z,64.30
2022-07-31T04:29:45.462Z,64.40
2022-07-31T04:32:12.504Z,64.40
2022-07-31T04:34:39.772Z,64.50
2022-07-31T04:37:06.901Z,64.60
2022-07-31T04:39:34.368Z,64.70
2022-07-31T04:42:01.686Z,64.90
2022-07-31T04:44:28.695Z,65.00
2022-07-31T04:47:00.270Z,65.30
2022-07-31T04:49:27.295Z,65.40
2022-07-31T04:51:54.087Z,65.60
2022-07-31T04:54:20.859Z,65.70
2022-07-31T04:56:48.571Z,65.80
2022-07-31T04:59:20.187Z,65.80
2022-07-31T05:01:48.115Z,66.00
2022-07-31T05:04:15.015Z,65.90
2022-07-31T05:06:44.130Z,66.00
2022-07-31T05:09:18.417Z,66.30
2022-07-31T05:11:47.545Z,66.50
2022-07-31T05:14:16.633Z,66.60
2022-07-31T05:16:43.960Z,66.80
2022-07-31T05:19:14.889Z,66.90
2022-07-31T05:21:49.659Z,67.00
2022-07-31T05:24:22.525Z,67.10
2022-07-31T05:26:59.276Z,67.10
2022-07-31T05:29:26.912Z,67.30
2022-07-31T05:31:59.523Z,67.50
2022-07-31T05:34:30.173Z,67.70
2022-07-31T05:36:58.600Z,67.80
2022-07-31T05:39:26.088Z,67.80
2022-07-31T05:41:53.223Z,68.00
2022-07-31T05:44:19.999Z,68.00
2022-07-31T05:46:46.781Z,68.00
2022-07-31T05:49:13.692Z,68.00
2022-07-31T05:51:43.832Z,68.00
2022-07-31T05:54:10.950Z,68.00
2022-07-31T05:56:37.705Z,68.00
2022-07-31T05:59:04.581Z,67.90
2022-07-31T06:01:31.429Z,67.90
2022-07-31T06:03:58.788Z,68.20
2022-07-31T06:06:26.044Z,68.30
2022-07-31T06:08:53.007Z,68.30
2022-07-31T06:11:19.927Z,68.40
2022-07-31T06:13:47.378Z,68.50
2022-07-31T06:16:14.950Z,68.40
2022-07-31T06:18:42.739Z,68.50
2022-07-31T06:21:09.973Z,68.70
2022-07-31T06:23:37.362Z,68.70
2022-07-31T06:26:07.521Z,68.80
2022-07-31T06:28:47.913Z,68.90
2022-07-31T06:31:21.234Z,68.90
2022-07-31T06:33:48.877Z,69.10
2022-07-31T06:36:17.353Z,69.00
2022-07-31T06:38:44.263Z,68.90
2022-07-31T06:41:11.730Z,69.10
2022-07-31T06:43:38.674Z,69.10
2022-07-31T06:46:05.806Z,69.00
2022-07-31T06:48:32.499Z,69.10
2022-07-31T06:51:30.307Z,69.20
2022-07-31T06:53:47.278Z,69.20
2022-07-31T06:56:14.381Z,69.20
2022-07-31T06:58:41.155Z,69.30
2022-07-31T07:01:08.083Z,69.30
2022-07-31T07:03:35.573Z,69.40
2022-07-31T07:06:03.522Z,69.40
2022-07-31T07:08:30.317Z,69.40
2022-07-31T07:10:57.116Z,69.20
2022-07-31T07:13:24.231Z,69.30
2022-07-31T07:16:12.421Z,69.30
2022-07-31T07:18:39.248Z,69.30
2022-07-31T07:21:05.987Z,69.30
2022-07-31T07:23:33.919Z,69.30
2022-07-31T07:26:00.684Z,69.40
2022-07-31T07:28:30.691Z,69.50
2022-07-31T07:30:58.205Z,69.50
2022-07-31T07:33:41.767Z,69.50
2022-07-31T07:36:23.426Z,69.60
2022-07-31T07:38:55.128Z,69.40
2022-07-31T07:41:25.998Z,69.30
2022-07-31T07:43:53.962Z,69.00
2022-07-31T07:46:22.815Z,69.70
2022-07-31T07:48:51.035Z,68.70
2022-07-31T07:51:18.086Z,68.30
2022-07-31T07:53:44.882Z,68.00
2022-07-31T07:56:14.529Z,67.90
2022-07-31T07:58:41.293Z,67.90
2022-07-31T08:01:08.709Z,67.90
2022-07-31T08:03:50.185Z,67.80
2022-07-31T08:06:21.513Z,68.00
2022-07-31T08:08:50.268Z,67.90
2022-07-31T08:11:17.981Z,67.80
2022-07-31T08:13:50.259Z,67.70
2022-07-31T08:16:19.683Z,67.80
2022-07-31T08:18:46.441Z,67.60
2022-07-31T08:21:15.554Z,67.50
2022-07-31T08:23:42.371Z,67.30
2022-07-31T08:26:09.273Z,67.30
2022-07-31T08:28:36.817Z,67.40
2022-07-31T08:31:04.073Z,67.30
2022-07-31T08:33:33.003Z,67.30
2022-07-31T08:36:00.780Z,67.20
2022-07-31T08:38:28.827Z,67.10
2022-07-31T08:40:55.626Z,67.10
2022-07-31T08:44:02.436Z,67.10
2022-07-31T08:46:09.961Z,67.90
2022-07-31T08:48:40.745Z,67.00
2022-07-31T08:51:10.657Z,67.00
2022-07-31T08:53:38.961Z,66.90
2022-07-31T08:56:07.924Z,66.80
2022-07-31T08:58:39.078Z,67.00
2022-07-31T09:01:08.131Z,67.10
2022-07-31T09:03:39.220Z,67.30
2022-07-31T09:06:23.568Z,67.50
2022-07-31T09:08:50.482Z,67.60
2022-07-31T09:11:18.759Z,67.60
2022-07-31T09:14:02.838Z,67.70
2022-07-31T09:16:31.327Z,67.80
2022-07-31T09:19:54.023Z,68.10
2022-07-31T09:21:51.960Z,68.30
2022-07-31T09:24:29.459Z,68.20
2022-07-31T09:27:27.987Z,68.00
2022-07-31T09:29:56.866Z,67.70
2022-07-31T09:32:24.138Z,68.00
2022-07-31T09:34:50.878Z,68.90
2022-07-31T09:37:20.667Z,68.00
2022-07-31T09:39:55.502Z,67.90
2022-07-31T09:42:34.621Z,67.90
2022-07-31T09:45:03.035Z,68.00
2022-07-31T09:47:32.388Z,68.00
2022-07-31T09:50:01.688Z,68.00
2022-07-31T09:52:31.236Z,67.80
2022-07-31T09:55:15.905Z,67.70
2022-07-31T09:57:58.639Z,67.60
2022-07-31T10:00:28.324Z,67.40
2022-07-31T10:02:57.007Z,67.20
2022-07-31T10:05:25.888Z,67.10
2022-07-31T10:07:54.461Z,67.30
2022-07-31T10:10:23.543Z,67.20
2022-07-31T10:12:54.825Z,66.80
2022-07-31T10:15:24.018Z,66.50
2022-07-31T10:17:52.344Z,66.00
2022-07-31T10:20:23.557Z,65.70
2022-07-31T10:22:55.538Z,65.70
2022-07-31T10:25:31.624Z,65.70
2022-07-31T10:27:58.712Z,65.60
2022-07-31T10:30:28.400Z,65.50
2022-07-31T10:32:55.981Z,65.30
2022-07-31T10:35:22.872Z,65.10
2022-07-31T10:38:04.100Z,64.80
2022-07-31T10:40:45.391Z,65.70
2022-07-31T10:43:29.172Z,64.70
2022-07-31T10:45:56.878Z,64.60
2022-07-31T10:48:25.955Z,64.50
2022-07-31T10:51:04.794Z,64.60
2022-07-31T10:53:41.427Z,64.40
2022-07-31T10:56:18.008Z,64.30
2022-07-31T10:58:54.406Z,64.40
2022-07-31T11:01:21.794Z,64.40
2022-07-31T11:03:53.195Z,64.50
2022-07-31T11:06:21.592Z,64.40
2022-07-31T11:08:52.395Z,64.00
2022-07-31T11:13:58.207Z,63.20
2022-07-31T11:16:25.523Z,63.20
2022-07-31T11:19:07.043Z,63.30
2022-07-31T11:21:39.898Z,63.10
2022-07-31T11:24:26.891Z,62.90
2022-07-31T11:27:04.870Z,63.00
2022-07-31T11:30:01.674Z,63.10
2022-07-31T11:32:26.278Z,63.70
2022-07-31T11:34:56.219Z,62.30
2022-07-31T11:37:30.660Z,62.20
2022-07-31T11:40:14.560Z,62.10
2022-07-31T11:42:49.965Z,62.00
2022-07-31T11:45:23.145Z,62.20
2022-07-31T11:48:11.233Z,62.20
2022-07-31T11:50:45.004Z,62.00
2022-07-31T11:53:12.380Z,61.70
2022-07-31T11:55:53.957Z,61.40
2022-07-31T11:58:30.937Z,61.10
2022-07-31T12:01:04.696Z,60.60
2022-07-31T12:03:37.208Z,60.30
2022-07-31T12:06:06.303Z,60.30
2022-07-31T12:08:34.935Z,60.40
2022-07-31T12:11:09.144Z,60.20
2022-07-31T12:13:38.530Z,60.40
2022-07-31T12:16:12.053Z,60.20
2022-07-31T12:18:59.723Z,59.70
2022-07-31T12:21:41.405Z,59.80
2022-07-31T12:24:13.564Z,59.90
2022-07-31T12:26:48.869Z,60.30
2022-07-31T12:29:18.832Z,60.40
2022-07-31T12:34:44.167Z,60.00
2022-07-31T12:37:17.128Z,59.60
2022-07-31T12:40:00.989Z,59.00
2022-07-31T12:42:42.999Z,58.50
2022-07-31T12:45:18.447Z,57.10
2022-07-31T12:47:59.559Z,57.40
2022-07-31T12:50:30.984Z,57.10
2022-07-31T12:53:19.941Z,56.90
2022-07-31T12:55:46.932Z,57.00
2022-07-31T12:58:16.407Z,57.20
2022-07-31T13:00:43.160Z,56.90
2022-07-31T13:08:30.284Z,57.20
2022-07-31T13:11:07.546Z,57.20
2022-07-31T13:13:35.278Z,57.10
2022-07-31T13:16:02.209Z,57.50
2022-07-31T13:18:30.152Z,57.50
2022-07-31T13:21:00.742Z,57.70
2022-07-31T13:23:28.044Z,57.70
2022-07-31T13:25:54.933Z,57.70
2022-07-31T13:28:21.852Z,57.50
2022-07-31T13:30:54.695Z,57.40
2022-07-31T13:33:23.370Z,57.20
2022-07-31T13:35:50.206Z,58.10
2022-07-31T13:38:18.194Z,57.20
2022-07-31T13:41:03.947Z,57.20
2022-07-31T13:43:30.867Z,57.30
2022-07-31T13:46:00.514Z,57.30
2022-07-31T13:48:27.894Z,57.40
2022-07-31T13:50:55.081Z,57.50
2022-07-31T13:53:22.003Z,57.50
2022-07-31T13:55:50.319Z,57.60
2022-07-31T13:58:17.874Z,57.60
2022-07-31T14:00:45.179Z,57.60
2022-07-31T14:03:12.952Z,57.70
2022-07-31T14:05:45.418Z,57.80
2022-07-31T14:08:33.248Z,58.80
2022-07-31T14:11:03.042Z,59.80
2022-07-31T14:13:30.166Z,61.00
2022-07-31T14:15:58.045Z,62.30
2022-07-31T14:18:24.810Z,63.60
2022-07-31T14:20:52.279Z,63.90
2022-07-31T14:23:19.653Z,64.30
2022-07-31T14:25:47.074Z,64.80
2022-07-31T14:28:14.213Z,64.90
2022-07-31T14:30:46.617Z,65.10
2022-07-31T14:33:16.915Z,64.80
2022-07-31T14:35:43.595Z,65.10
2022-07-31T14:38:10.619Z,65.20
2022-07-31T14:40:37.600Z,65.30
2022-07-31T14:43:04.565Z,65.40
2022-07-31T14:45:31.384Z,65.90
2022-07-31T14:48:07.852Z,66.40
2022-07-31T14:50:37.713Z,67.00
2022-07-31T14:53:04.835Z,67.10
2022-07-31T14:55:31.916Z,67.90
2022-07-31T14:58:00.137Z,68.50
2022-07-31T15:00:27.426Z,68.70
2022-07-31T15:02:54.512Z,68.90
2022-07-31T15:06:48.835Z,70.00
2022-07-31T15:08:09.362Z,69.20
2022-07-31T15:10:36.224Z,69.40
2022-07-31T15:13:03.123Z,69.80
2022-07-31T15:15:30.030Z,69.70
2022-07-31T15:18:00.698Z,69.60
2022-07-31T15:20:32.842Z,69.30
2022-07-31T15:23:00.243Z,69.10
2022-07-31T15:25:27.065Z,69.10
2022-07-31T15:27:53.841Z,68.90
2022-07-31T15:30:21.580Z,68.90
2022-07-31T15:32:49.023Z,68.90
2022-07-31T15:35:15.971Z,68.80
2022-07-31T15:37:46.223Z,69.00
2022-07-31T15:40:15.366Z,68.80
2022-07-31T15:42:43.837Z,69.00
2022-07-31T15:45:13.433Z,69.10
2022-07-31T15:47:44.381Z,69.10
2022-07-31T15:50:13.903Z,69.50
2022-07-31T15:52:41.459Z,69.70
2022-07-31T15:55:09.531Z,70.20
2022-07-31T15:57:36.597Z,70.40
2022-07-31T16:00:05.535Z,70.60
2022-07-31T16:02:32.643Z,71.20
2022-07-31T16:05:02.637Z,71.40
2022-07-31T16:08:28.799Z,71.90
2022-07-31T16:10:25.812Z,72.30
2022-07-31T16:12:52.721Z,72.60
2022-07-31T16:15:20.515Z,73.00
2022-07-31T16:17:48.273Z,73.20
2022-07-31T16:20:20.638Z,73.30
2022-07-31T16:22:56.858Z,73.50
2022-07-31T16:25:26.939Z,73.80
2022-07-31T16:27:54.319Z,74.10
2022-07-31T16:30:22.489Z,74.30
2022-07-31T16:32:50.065Z,74.40
2022-07-31T16:35:17.477Z,74.40
2022-07-31T16:37:52.687Z,74.70
2022-07-31T16:40:30.315Z,74.80
2022-07-31T16:43:03.650Z,75.00
2022-07-31T16:45:50.246Z,75.80
2022-07-31T16:48:17.063Z,75.10
2022-07-31T16:50:43.807Z,74.90
2022-07-31T16:53:13.604Z,75.10
2022-07-31T16:56:01.470Z,75.20
2022-07-31T16:58:29.321Z,75.10
2022-07-31T17:00:56.578Z,75.20
2022-07-31T17:03:58.686Z,75.50
2022-07-31T17:06:11.601Z,75.60
2022-07-31T17:08:39.410Z,75.40
2022-07-31T17:11:07.587Z,75.50
2022-07-31T17:13:34.375Z,75.50
2022-07-31T17:16:01.132Z,75.60
2022-07-31T17:18:27.925Z,75.70
2022-07-31T17:20:55.818Z,75.60
2022-07-31T17:23:43.109Z,75.80
2022-07-31T17:26:20.757Z,75.80
2022-07-31T17:28:49.274Z,75.60
2022-07-31T17:31:16.217Z,75.50
2022-07-31T17:33:58.414Z,75.50
2022-07-31T17:36:29.285Z,75.50
2022-07-31T17:38:57.174Z,75.50
2022-07-31T17:41:24.618Z,75.50
2022-07-31T17:43:54.094Z,75.50
2022-07-31T17:46:28.188Z,75.50
2022-07-31T17:49:02.002Z,75.50
2022-07-31T17:51:28.850Z,75.40
2022-07-31T17:53:59.218Z,75.50
2022-07-31T17:56:27.853Z,75.60
2022-07-31T17:58:55.840Z,75.60
2022-07-31T18:01:28.467Z,75.60
2022-07-31T18:03:55.854Z,76.50
2022-07-31T18:06:22.699Z,75.80
2022-07-31T18:08:49.465Z,75.80
2022-07-31T18:11:16.287Z,75.80
2022-07-31T18:13:48.826Z,75.60
2022-07-31T18:16:19.280Z,75.60
2022-07-31T18:18:46.383Z,75.30
2022-07-31T18:21:14.476Z,75.30
2022-07-31T18:23:47.271Z,75.20
2022-07-31T18:26:14.569Z,75.10
2022-07-31T18:28:44.367Z,75.10
2022-07-31T18:31:24.181Z,75.10
2022-07-31T18:33:57.845Z,75.10
2022-07-31T18:36:24.636Z,75.10
2022-07-31T18:38:54.117Z,75.10
2022-07-31T18:41:23.241Z,75.10
2022-07-31T18:43:50.313Z,75.10
2022-07-31T18:46:17.167Z,75.10
2022-07-31T18:48:43.974Z,75.00
2022-07-31T18:51:10.797Z,75.80
2022-07-31T18:53:37.659Z,75.10
2022-07-31T18:56:04.593Z,75.10
2022-07-31T18:58:31.390Z,75.30
2022-07-31T19:01:01.247Z,75.50
2022-07-31T19:03:30.746Z,75.60
2022-07-31T19:05:58.599Z,75.80
2022-07-31T19:08:25.427Z,76.20
2022-07-31T19:10:53.635Z,76.40
2022-07-31T19:13:21.788Z,76.60
2022-07-31T19:15:50.704Z,76.90
2022-07-31T19:18:17.847Z,77.10
2022-07-31T19:21:00.074Z,77.40
2022-07-31T19:23:38.561Z,77.60
2022-07-31T19:26:05.555Z,77.60
2022-07-31T19:28:32.874Z,77.80
2022-07-31T19:30:59.638Z,78.00
2022-07-31T19:33:26.561Z,78.10
2022-07-31T19:36:00.351Z,78.20
2022-07-31T19:38:29.327Z,78.30
2022-07-31T19:40:56.099Z,78.20
2022-07-31T19:43:22.882Z,78.30
2022-07-31T19:45:58.834Z,78.40
2022-07-31T19:48:37.002Z,78.50
2022-07-31T19:51:05.970Z,78.50
2022-07-31T19:53:32.902Z,78.60
2022-07-31T19:56:02.133Z,78.80
2022-07-31T19:58:28.905Z,78.80
2022-07-31T20:00:55.692Z,79.10
2022-07-31T20:03:22.573Z,79.10
2022-07-31T20:05:49.370Z,79.40
2022-07-31T20:08:16.055Z,79.40
2022-07-31T20:10:42.869Z,79.50
2022-07-31T20:13:09.815Z,79.60
2022-07-31T20:15:51.267Z,79.70
2022-07-31T20:18:30.708Z,79.90
2022-07-31T20:21:05.447Z,80.00
2022-07-31T20:23:34.260Z,80.00
2022-07-31T20:26:01.494Z,80.10
2022-07-31T20:28:28.391Z,80.20
2022-07-31T20:30:55.136Z,80.30
2022-07-31T20:33:21.985Z,80.30
2022-07-31T20:35:50.586Z,80.40
2022-07-31T20:38:22.015Z,80.40
2022-07-31T20:40:54.225Z,81.40
2022-07-31T20:43:27.118Z,80.50
2022-07-31T20:45:57.424Z,80.60
2022-07-31T20:48:35.274Z,80.70
2022-07-31T20:51:03.830Z,80.70
2022-07-31T20:53:31.118Z,80.70
2022-07-31T20:55:58.612Z,80.90
2022-07-31T20:58:26.397Z,81.00
2022-07-31T21:00:53.541Z,81.00
2022-07-31T21:03:20.702Z,81.10
2022-07-31T21:05:47.962Z,81.10
2022-07-31T21:08:15.380Z,81.20
2022-07-31T21:10:42.213Z,81.40
2022-07-31T21:13:09.474Z,81.40
2022-07-31T21:15:43.359Z,81.60
2022-07-31T21:18:16.628Z,81.60
2022-07-31T21:20:51.040Z,81.70
2022-07-31T21:23:24.240Z,81.70
2022-07-31T21:25:53.117Z,81.80
2022-07-31T21:28:20.748Z,81.90
2022-07-31T21:30:47.794Z,81.90
2022-07-31T21:33:15.148Z,82.00
2022-07-31T21:35:42.317Z,82.00
2022-07-31T21:38:14.672Z,82.10
2022-07-31T21:40:41.545Z,82.20
2022-07-31T21:43:09.604Z,82.10
2022-07-31T21:45:50.655Z,82.20
2022-07-31T21:48:25.283Z,82.30
2022-07-31T21:50:54.854Z,82.30
2022-07-31T21:53:24.899Z,82.40
2022-07-31T21:55:52.032Z,82.40
2022-07-31T21:58:19.242Z,82.50
2022-07-31T22:00:46.517Z,82.60
2022-07-31T22:03:13.401Z,82.70
2022-07-31T22:05:59.245Z,82.70
2022-07-31T22:08:25.945Z,82.70
2022-07-31T22:10:52.775Z,82.60
2022-07-31T22:13:20.334Z,82.70
2022-07-31T22:15:59.294Z,82.80
2022-07-31T22:18:32.500Z,83.00
2022-07-31T22:21:01.213Z,83.00
2022-07-31T22:23:28.798Z,83.10
2022-07-31T22:25:55.922Z,83.00
2022-07-31T22:28:24.115Z,83.00
2022-07-31T22:30:51.963Z,83.10
2022-07-31T22:33:19.780Z,84.00
2022-07-31T22:35:59.354Z,83.30
2022-07-31T22:38:27.920Z,83.30
2022-07-31T22:40:55.069Z,83.30
2022-07-31T22:44:12.036Z,83.30
2022-07-31T22:46:11.915Z,83.40
2022-07-31T22:48:40.563Z,83.40
2022-07-31T22:51:08.002Z,83.40
2022-07-31T22:53:35.110Z,83.60
2022-07-31T22:56:01.916Z,83.60
2022-07-31T22:58:28.639Z,83.60
2022-07-31T23:00:56.354Z,84.50
2022-07-31T23:03:23.089Z,83.80
2022-07-31T23:06:28.111Z,83.80
2022-07-31T23:08:36.935Z,83.90
2022-07-31T23:11:03.824Z,83.70
2022-07-31T23:13:30.539Z,83.70
2022-07-31T23:15:57.316Z,83.90
2022-07-31T23:18:26.539Z,83.90
2022-07-31T23:20:53.336Z,84.00
2022-07-31T23:23:20.072Z,84.00
2022-07-31T23:25:46.823Z,84.00
2022-07-31T23:28:15.376Z,84.10
2022-07-31T23:30:42.245Z,84.20
2022-07-31T23:33:08.962Z,84.20
2022-07-31T23:35:35.711Z,84.20
2022-07-31T23:38:02.483Z,84.30
2022-07-31T23:40:29.302Z,84.30
2022-07-31T23:42:56.026Z,84.40
2022-07-31T23:45:23.564Z,84.40
2022-07-31T23:47:50.889Z,84.40
2022-07-31T23:50:17.928Z,84.50
2022-07-31T23:52:44.729Z,84.40
2022-07-31T23:55:12.090Z,84.20
2022-07-31T23:57:39.976Z,84.00
